createdAt,value
2022-11-16T00:00:02.811Z,4.97
2022-11-16T00:02:31.992Z,5.88
2022-11-16T00:04:58.498Z,5.27
2022-11-16T00:07:24.980Z,6.03
2022-11-16T00:09:51.557Z,4.72
2022-11-16T00:12:18.086Z,5.50
2022-11-16T00:14:44.533Z,5.05
2022-11-16T00:17:11.062Z,5.83
2022-11-16T00:19:37.867Z,5.50
2022-11-16T00:22:04.548Z,5.57
2022-11-16T00:24:31.104Z,5.38
2022-11-16T00:26:57.710Z,5.80
2022-11-16T00:29:25.754Z,5.50
2022-11-16T00:31:53.889Z,4.45
2022-11-16T00:34:21.561Z,5.85
2022-11-16T00:36:48.651Z,6.00
2022-11-16T00:39:16.611Z,5.95
2022-11-16T00:41:44.753Z,6.17
2022-11-16T00:44:11.575Z,5.63
2022-11-16T00:46:38.311Z,6.97
2022-11-16T00:49:05.601Z,6.55
2022-11-16T00:51:33.121Z,5.30
2022-11-16T00:53:59.846Z,6.10
2022-11-16T00:56:26.300Z,6.90
2022-11-16T00:58:52.947Z,5.78
2022-11-16T01:01:19.869Z,7.75
2022-11-16T01:03:47.757Z,7.00
2022-11-16T01:06:15.634Z,6.43
2022-11-16T01:08:42.566Z,5.82
2022-11-16T01:11:31.493Z,7.72
2022-11-16T01:13:57.957Z,6.35
2022-11-16T01:16:24.800Z,6.60
2022-11-16T01:18:53.499Z,6.10
2022-11-16T01:21:20.916Z,5.88
2022-11-16T01:23:47.657Z,7.30
2022-11-16T01:26:14.243Z,10.00
2022-11-16T01:28:40.750Z,29.23
2022-11-16T01:31:08.988Z,16.17
2022-11-16T01:33:36.794Z,22.02
2022-11-16T01:36:08.312Z,8.38
2022-11-16T01:38:35.065Z,8.27
2022-11-16T01:41:01.827Z,7.53
2022-11-16T01:43:28.401Z,6.20
2022-11-16T01:45:54.992Z,8.27
2022-11-16T01:48:27.635Z,8.18
2022-11-16T01:50:56.302Z,6.35
2022-11-16T01:53:24.728Z,5.75
2022-11-16T01:55:52.114Z,5.63
2022-11-16T01:58:23.223Z,5.80
2022-11-16T02:00:49.957Z,7.30
2022-11-16T02:03:21.000Z,4.97
2022-11-16T02:06:12.309Z,6.97
2022-11-16T02:09:11.521Z,6.87
2022-11-16T02:12:15.072Z,6.07
2022-11-16T02:14:53.239Z,7.22
2022-11-16T02:17:33.496Z,10.55
2022-11-16T02:20:29.796Z,5.97
2022-11-16T02:23:11.324Z,6.80
2022-11-16T02:26:03.260Z,7.22
2022-11-16T02:28:54.420Z,6.70
2022-11-16T02:31:27.330Z,5.78
2022-11-16T02:33:56.879Z,5.35
2022-11-16T02:36:25.692Z,9.57
2022-11-16T02:39:01.633Z,18.08
2022-11-16T02:41:34.083Z,6.55
2022-11-16T02:44:06.234Z,7.03
2022-11-16T02:46:38.187Z,5.95
2022-11-16T02:49:11.293Z,8.43
2022-11-16T02:51:40.025Z,22.20
2022-11-16T02:54:14.677Z,20.63
2022-11-16T02:57:02.950Z,8.35
2022-11-16T02:59:36.367Z,12.07
2022-11-16T03:02:18.088Z,26.10
2022-11-16T03:04:48.921Z,22.83
2022-11-16T03:07:20.390Z,14.40
2022-11-16T03:09:49.648Z,21.63
2022-11-16T03:12:22.109Z,10.85
2022-11-16T03:14:58.904Z,9.20
2022-11-16T03:17:37.907Z,8.98
2022-11-16T03:20:11.858Z,7.90
2022-11-16T03:22:48.601Z,6.35
2022-11-16T03:25:19.683Z,6.07
2022-11-16T03:27:55.027Z,5.87
2022-11-16T03:30:24.324Z,5.78
2022-11-16T03:33:01.567Z,7.90
2022-11-16T03:35:35.242Z,28.05
2022-11-16T03:38:05.408Z,11.30
2022-11-16T03:40:34.474Z,5.83
2022-11-16T03:43:03.188Z,9.13
2022-11-16T03:45:31.169Z,10.30
2022-11-16T03:47:57.630Z,7.82
2022-11-16T03:50:24.301Z,8.35
2022-11-16T03:52:50.760Z,10.83
2022-11-16T03:55:17.542Z,12.20
2022-11-16T03:57:44.014Z,10.68
2022-11-16T04:00:11.455Z,9.27
2022-11-16T04:02:38.194Z,7.32
2022-11-16T04:05:23.461Z,8.37
2022-11-16T04:08:18.799Z,7.68
2022-11-16T04:11:04.167Z,6.15
2022-11-16T04:13:51.646Z,5.22
2022-11-16T04:16:36.811Z,6.30
2022-11-16T04:19:21.971Z,5.83
2022-11-16T04:22:12.650Z,8.18
2022-11-16T04:24:41.094Z,6.90
2022-11-16T04:27:29.525Z,9.75
2022-11-16T04:29:58.762Z,9.88
2022-11-16T04:32:43.864Z,8.20
2022-11-16T04:35:29.049Z,9.73
2022-11-16T04:37:59.014Z,8.88
2022-11-16T04:40:30.369Z,7.35
2022-11-16T04:42:59.303Z,4.53
2022-11-16T04:45:46.089Z,4.20
2022-11-16T04:48:15.018Z,3.70
2022-11-16T04:50:41.963Z,5.43
2022-11-16T04:53:09.195Z,6.30
2022-11-16T04:55:36.304Z,5.40
2022-11-16T04:58:03.275Z,3.40
2022-11-16T05:00:30.339Z,3.28
2022-11-16T05:03:01.207Z,3.05
2022-11-16T05:05:28.819Z,3.13
2022-11-16T05:07:55.672Z,3.20
2022-11-16T05:10:22.227Z,2.60
2022-11-16T05:12:48.709Z,3.58
2022-11-16T05:15:17.592Z,3.22
2022-11-16T05:17:44.295Z,3.58
2022-11-16T05:20:29.937Z,4.47
2022-11-16T05:22:58.138Z,3.57
2022-11-16T05:25:24.716Z,3.08
2022-11-16T05:27:51.480Z,3.78
2022-11-16T05:30:18.549Z,5.45
2022-11-16T05:32:46.110Z,7.55
2022-11-16T05:35:13.670Z,2.63
2022-11-16T05:37:40.188Z,3.08
2022-11-16T05:40:08.716Z,4.18
2022-11-16T05:42:35.223Z,2.83
2022-11-16T05:45:01.715Z,3.15
2022-11-16T05:47:28.241Z,2.60
2022-11-16T05:49:54.716Z,4.15
2022-11-16T05:52:21.244Z,3.55
2022-11-16T05:54:47.740Z,2.92
2022-11-16T05:57:15.382Z,5.13
2022-11-16T05:59:42.636Z,2.50
2022-11-16T06:02:09.280Z,4.15
2022-11-16T06:04:35.921Z,4.55
2022-11-16T06:07:02.477Z,4.03
2022-11-16T06:09:29.115Z,5.28
2022-11-16T06:11:55.711Z,4.93
2022-11-16T06:14:22.227Z,6.50
2022-11-16T06:16:48.781Z,6.95
2022-11-16T06:19:15.441Z,12.20
2022-11-16T06:21:42.098Z,5.40
2022-11-16T06:24:09.654Z,8.03
2022-11-16T06:26:37.268Z,6.32
2022-11-16T06:29:04.202Z,8.25
2022-11-16T06:31:31.179Z,7.53
2022-11-16T06:33:57.702Z,29.45
2022-11-16T06:36:24.250Z,5.77
2022-11-16T06:38:51.099Z,5.88
2022-11-16T06:41:17.698Z,5.13
2022-11-16T06:43:44.443Z,6.47
2022-11-16T06:46:11.303Z,6.93
2022-11-16T06:48:37.998Z,7.07
2022-11-16T06:51:05.589Z,7.15
2022-11-16T06:53:32.047Z,5.90
2022-11-16T06:56:03.764Z,8.15
2022-11-16T06:58:32.147Z,7.80
2022-11-16T07:01:06.078Z,9.07
2022-11-16T07:03:32.693Z,5.43
2022-11-16T07:05:59.348Z,6.65
2022-11-16T07:08:26.011Z,5.63
2022-11-16T07:10:52.530Z,6.82
2022-11-16T07:13:19.039Z,5.53
2022-11-16T07:15:45.469Z,5.10
2022-11-16T07:18:12.062Z,5.70
2022-11-16T07:20:38.966Z,4.43
2022-11-16T07:23:07.093Z,4.30
2022-11-16T07:25:36.676Z,4.73
2022-11-16T07:28:04.804Z,4.07
2022-11-16T07:30:31.429Z,4.43
2022-11-16T07:32:59.176Z,4.50
2022-11-16T07:35:25.956Z,4.05
2022-11-16T07:37:52.517Z,3.70
2022-11-16T07:40:19.577Z,3.85
2022-11-16T07:42:46.451Z,3.13
2022-11-16T07:45:13.080Z,3.65
2022-11-16T07:47:39.644Z,4.63
2022-11-16T07:50:06.828Z,3.73
2022-11-16T07:52:33.359Z,2.65
2022-11-16T07:55:01.865Z,2.95
2022-11-16T07:57:28.723Z,2.55
2022-11-16T07:59:55.133Z,2.35
2022-11-16T08:02:21.562Z,1.90
2022-11-16T08:04:48.061Z,2.47
2022-11-16T08:07:16.551Z,1.60
2022-11-16T08:09:43.667Z,1.65
2022-11-16T08:12:10.250Z,1.65
2022-11-16T08:14:36.787Z,1.53
2022-11-16T08:17:05.104Z,1.20
2022-11-16T08:19:31.734Z,1.10
2022-11-16T08:21:58.288Z,1.30
2022-11-16T08:24:25.338Z,1.08
2022-11-16T08:26:51.968Z,1.30
2022-11-16T08:29:18.624Z,1.10
2022-11-16T08:31:45.984Z,1.42
2022-11-16T08:34:12.625Z,1.63
2022-11-16T08:36:39.298Z,2.17
2022-11-16T08:39:05.773Z,0.80
2022-11-16T08:41:32.671Z,1.38
2022-11-16T08:44:01.273Z,1.88
2022-11-16T08:46:28.149Z,1.75
2022-11-16T08:48:57.105Z,1.55
2022-11-16T08:51:24.848Z,1.90
2022-11-16T08:53:56.497Z,1.98
2022-11-16T08:56:23.974Z,1.95
2022-11-16T08:58:58.127Z,1.50
2022-11-16T09:01:28.202Z,1.10
2022-11-16T09:03:55.378Z,1.30
2022-11-16T09:06:24.291Z,1.40
2022-11-16T09:08:51.793Z,1.63
2022-11-16T09:11:21.843Z,1.65
2022-11-16T09:13:50.735Z,1.60
2022-11-16T09:16:20.855Z,1.50
2022-11-16T09:18:49.588Z,1.98
2022-11-16T09:21:20.222Z,1.60
2022-11-16T09:23:48.378Z,1.13
2022-11-16T09:26:15.847Z,1.60
2022-11-16T09:28:42.433Z,1.13
2022-11-16T09:31:10.509Z,0.70
2022-11-16T09:33:37.892Z,1.63
2022-11-16T09:36:08.139Z,1.20
2022-11-16T09:38:55.756Z,1.40
2022-11-16T09:41:52.750Z,1.23
2022-11-16T09:44:47.367Z,1.20
2022-11-16T09:47:24.038Z,1.38
2022-11-16T09:50:02.773Z,1.98
2022-11-16T09:52:46.637Z,1.90
2022-11-16T09:55:43.398Z,1.23
2022-11-16T09:58:17.840Z,1.55
2022-11-16T10:00:50.274Z,1.40
2022-11-16T10:03:17.079Z,0.82
2022-11-16T10:05:46.413Z,1.08
2022-11-16T10:08:31.900Z,1.20
2022-11-16T10:11:22.099Z,1.38
2022-11-16T10:14:22.492Z,1.30
2022-11-16T10:17:07.034Z,1.38
2022-11-16T10:19:36.382Z,1.50
2022-11-16T10:22:21.371Z,1.10
2022-11-16T10:24:53.628Z,1.00
2022-11-16T10:27:27.588Z,1.45
2022-11-16T10:29:57.005Z,1.85
2022-11-16T10:32:39.038Z,3.95
2022-11-16T10:35:12.725Z,1.50
2022-11-16T10:37:50.595Z,0.95
2022-11-16T10:40:36.291Z,1.25
2022-11-16T10:43:13.656Z,0.98
2022-11-16T10:45:50.756Z,1.13
2022-11-16T10:48:22.503Z,1.43
2022-11-16T10:50:53.140Z,1.02
2022-11-16T10:53:36.354Z,1.27
2022-11-16T10:56:22.280Z,1.80
2022-11-16T10:58:48.754Z,1.13
2022-11-16T11:01:28.457Z,1.07
2022-11-16T11:03:55.506Z,1.25
2022-11-16T11:06:26.722Z,1.40
2022-11-16T11:08:53.465Z,1.13
2022-11-16T11:11:42.716Z,1.77
2022-11-16T11:14:12.139Z,1.20
2022-11-16T11:16:41.522Z,0.75
2022-11-16T11:19:19.651Z,1.00
2022-11-16T11:21:47.586Z,1.20
2022-11-16T11:24:43.413Z,1.08
2022-11-16T11:27:03.733Z,0.93
2022-11-16T11:29:42.168Z,1.48
2022-11-16T11:32:22.383Z,0.90
2022-11-16T11:34:53.812Z,1.85
2022-11-16T11:37:29.164Z,0.90
2022-11-16T11:40:07.856Z,0.90
2022-11-16T11:42:51.145Z,1.30
2022-11-16T11:45:19.871Z,0.82
2022-11-16T11:47:59.985Z,1.50
2022-11-16T11:50:43.273Z,1.00
2022-11-16T11:53:47.404Z,0.70
2022-11-16T11:56:15.478Z,0.88
2022-11-16T11:58:43.153Z,1.50
2022-11-16T12:01:40.546Z,1.25
2022-11-16T12:04:28.812Z,1.10
2022-11-16T12:07:32.857Z,1.07
2022-11-16T12:10:20.734Z,0.68
2022-11-16T12:13:10.787Z,1.42
2022-11-16T12:15:57.725Z,1.23
2022-11-16T12:18:53.666Z,0.85
2022-11-16T12:21:30.011Z,0.70
2022-11-16T12:24:02.260Z,1.10
2022-11-16T12:26:50.331Z,1.48
2022-11-16T12:29:19.697Z,1.02
2022-11-16T12:32:14.395Z,0.93
2022-11-16T12:34:48.338Z,1.27
2022-11-16T12:37:39.572Z,0.80
2022-11-16T12:40:37.546Z,0.80
2022-11-16T12:43:13.251Z,0.85
2022-11-16T12:45:51.535Z,0.80
2022-11-16T12:48:36.724Z,1.00
2022-11-16T12:51:18.840Z,1.00
2022-11-16T12:53:54.400Z,0.90
2022-11-16T12:56:37.215Z,0.40
2022-11-16T12:59:34.690Z,0.70
2022-11-16T13:02:08.515Z,3.10
2022-11-16T13:04:43.625Z,1.05
2022-11-16T13:07:33.416Z,0.93
2022-11-16T13:10:13.649Z,0.77
2022-11-16T13:12:43.889Z,0.90
2022-11-16T13:15:19.327Z,1.40
2022-11-16T13:17:55.258Z,1.05
2022-11-16T13:20:33.506Z,1.13
2022-11-16T13:23:42.024Z,0.63
2022-11-16T13:26:18.168Z,1.00
2022-11-16T13:29:07.358Z,0.60
2022-11-16T13:31:39.448Z,0.50
2022-11-16T13:34:14.410Z,0.60
2022-11-16T13:36:45.400Z,0.90
2022-11-16T13:39:21.513Z,0.45
2022-11-16T13:41:49.111Z,0.50
2022-11-16T13:44:20.415Z,1.10
2022-11-16T13:46:56.797Z,1.00
2022-11-16T13:49:29.439Z,0.95
2022-11-16T13:52:16.872Z,0.70
2022-11-16T13:54:53.071Z,0.77
2022-11-16T13:57:26.724Z,0.90
2022-11-16T14:00:10.466Z,0.93
2022-11-16T14:02:42.884Z,0.82
2022-11-16T14:05:12.481Z,0.88
2022-11-16T14:07:45.356Z,1.10
2022-11-16T14:10:32.458Z,1.08
2022-11-16T14:13:04.520Z,0.73
2022-11-16T14:15:36.091Z,1.15
2022-11-16T14:18:32.375Z,0.63
2022-11-16T14:21:10.708Z,0.50
2022-11-16T14:24:05.598Z,0.65
2022-11-16T14:27:03.202Z,0.77
2022-11-16T14:30:08.364Z,0.70
2022-11-16T14:32:43.396Z,0.68
2022-11-16T14:35:27.105Z,1.33
2022-11-16T14:38:06.316Z,0.85
2022-11-16T14:40:42.992Z,0.90
2022-11-16T14:43:17.997Z,1.10
2022-11-16T14:45:52.020Z,0.80
2022-11-16T14:48:21.648Z,0.60
2022-11-16T14:51:08.381Z,0.85
2022-11-16T14:53:39.400Z,1.08
2022-11-16T14:56:08.841Z,0.82
2022-11-16T14:58:36.189Z,1.17
2022-11-16T15:01:06.232Z,0.80
2022-11-16T15:03:41.734Z,0.85
2022-11-16T15:06:08.728Z,1.05
2022-11-16T15:08:49.722Z,1.92
2022-11-16T15:11:25.410Z,0.82
2022-11-16T15:13:52.321Z,0.80
2022-11-16T15:16:20.312Z,0.90
2022-11-16T15:19:12.535Z,1.13
2022-11-16T15:21:38.984Z,1.15
2022-11-16T15:24:29.227Z,1.08
2022-11-16T15:26:52.700Z,0.70
2022-11-16T15:29:21.413Z,0.80
2022-11-16T15:31:49.166Z,0.68
2022-11-16T15:34:18.167Z,0.80
2022-11-16T15:36:46.007Z,0.80
2022-11-16T15:39:16.445Z,0.97
2022-11-16T15:41:43.578Z,0.88
2022-11-16T15:44:16.146Z,0.90
2022-11-16T15:46:47.371Z,1.20
2022-11-16T15:49:27.305Z,1.45
2022-11-16T15:51:54.250Z,1.30
2022-11-16T15:54:51.934Z,1.25
2022-11-16T15:57:20.424Z,1.25
2022-11-16T15:59:56.369Z,0.82
2022-11-16T16:02:27.544Z,1.45
2022-11-16T16:04:54.677Z,1.07
2022-11-16T16:07:43.040Z,1.00
2022-11-16T16:10:24.650Z,1.38
2022-11-16T16:12:58.563Z,1.40
2022-11-16T16:15:34.022Z,1.08
2022-11-16T16:18:02.388Z,1.33
2022-11-16T16:20:31.996Z,1.02
2022-11-16T16:23:16.472Z,1.58
2022-11-16T16:25:49.064Z,2.10
2022-11-16T16:28:16.867Z,1.27
2022-11-16T16:30:43.565Z,1.20
2022-11-16T16:33:19.450Z,1.50
2022-11-16T16:35:49.700Z,1.30
2022-11-16T16:38:16.474Z,1.33
2022-11-16T16:40:42.981Z,1.27
2022-11-16T16:43:09.633Z,1.00
2022-11-16T16:45:38.990Z,1.25
2022-11-16T16:48:06.443Z,1.02
2022-11-16T16:50:32.947Z,1.40
2022-11-16T16:52:59.707Z,1.02
2022-11-16T16:55:26.427Z,1.33
2022-11-16T16:57:56.551Z,1.30
2022-11-16T17:00:23.716Z,1.50
2022-11-16T17:02:50.748Z,2.00
2022-11-16T17:05:17.402Z,2.05
2022-11-16T17:07:43.948Z,1.70
2022-11-16T17:10:11.022Z,1.50
2022-11-16T17:12:37.558Z,1.30
2022-11-16T17:15:04.286Z,1.75
2022-11-16T17:17:31.731Z,1.23
2022-11-16T17:19:58.577Z,1.33
2022-11-16T17:22:25.426Z,1.60
2022-11-16T17:24:51.971Z,1.30
2022-11-16T17:27:18.664Z,1.60
2022-11-16T17:29:45.116Z,1.50
2022-11-16T17:32:11.797Z,1.30
2022-11-16T17:34:39.986Z,1.65
2022-11-16T17:37:06.747Z,1.25
2022-11-16T17:39:33.305Z,1.42
2022-11-16T17:41:59.861Z,1.83
2022-11-16T17:44:26.847Z,1.57
2022-11-16T17:46:53.303Z,1.40
2022-11-16T17:49:20.061Z,2.08
2022-11-16T17:51:46.477Z,1.35
2022-11-16T17:54:13.056Z,1.50
2022-11-16T17:56:39.587Z,1.53
2022-11-16T17:59:06.375Z,1.85
2022-11-16T18:01:33.418Z,1.50
2022-11-16T18:04:01.204Z,1.65
2022-11-16T18:06:28.224Z,1.70
2022-11-16T18:08:54.957Z,1.40
2022-11-16T18:11:24.075Z,1.48
2022-11-16T18:13:59.515Z,2.00
2022-11-16T18:16:28.737Z,1.70
2022-11-16T18:19:03.135Z,1.67
2022-11-16T18:21:29.999Z,2.47
2022-11-16T18:23:58.930Z,1.90
2022-11-16T18:26:25.604Z,2.17
2022-11-16T18:28:52.875Z,1.25
2022-11-16T18:31:21.932Z,1.95
2022-11-16T18:33:51.941Z,2.00
2022-11-16T18:36:20.010Z,2.08
2022-11-16T18:38:46.937Z,1.17
2022-11-16T18:41:13.509Z,1.48
2022-11-16T18:43:39.895Z,1.92
2022-11-16T18:46:06.742Z,1.83
2022-11-16T18:48:33.593Z,1.25
2022-11-16T18:51:01.711Z,1.38
2022-11-16T18:53:29.731Z,1.58
2022-11-16T18:55:58.052Z,1.35
2022-11-16T19:01:14.839Z,1.50
2022-11-16T19:03:41.650Z,1.45
2022-11-16T19:06:09.781Z,1.48
2022-11-16T19:08:38.052Z,1.63
2022-11-16T19:11:13.612Z,1.70
2022-11-16T19:13:42.108Z,1.17
2022-11-16T19:16:11.583Z,1.27
2022-11-16T19:18:38.930Z,1.10
2022-11-16T19:21:09.965Z,1.27
2022-11-16T19:23:42.822Z,1.00
2022-11-16T19:26:10.356Z,1.38
2022-11-16T19:28:38.364Z,1.05
2022-11-16T19:31:15.725Z,1.17
2022-11-16T19:33:43.018Z,1.40
2022-11-16T19:36:12.535Z,1.00
2022-11-16T19:38:39.537Z,0.93
2022-11-16T19:41:07.330Z,1.50
2022-11-16T19:43:34.749Z,1.48
2022-11-16T19:46:10.475Z,1.05
2022-11-16T19:48:37.698Z,1.13
2022-11-16T19:51:09.166Z,1.17
2022-11-16T19:53:36.429Z,1.15
2022-11-16T19:56:04.234Z,1.38
2022-11-16T19:58:32.016Z,0.80
2022-11-16T20:01:07.042Z,1.20
2022-11-16T20:03:34.702Z,1.00
2022-11-16T20:06:07.118Z,0.98
2022-11-16T20:08:33.802Z,1.63
2022-11-16T20:11:00.452Z,3.85
2022-11-16T20:13:27.060Z,1.20
2022-11-16T20:15:53.573Z,1.20
2022-11-16T20:18:20.129Z,1.13
2022-11-16T20:20:46.672Z,1.33
2022-11-16T20:23:15.668Z,1.27
2022-11-16T20:25:42.185Z,1.20
2022-11-16T20:28:09.554Z,1.35
2022-11-16T20:30:38.093Z,1.20
2022-11-16T20:33:04.562Z,1.00
2022-11-16T20:35:31.085Z,0.93
2022-11-16T20:37:57.687Z,1.17
2022-11-16T20:40:24.956Z,1.40
2022-11-16T20:42:51.454Z,1.50
2022-11-16T20:45:17.980Z,0.75
2022-11-16T20:47:44.552Z,0.70
2022-11-16T20:50:11.078Z,1.07
2022-11-16T20:52:42.433Z,0.98
2022-11-16T20:55:10.194Z,1.05
2022-11-16T20:57:37.277Z,1.65
2022-11-16T21:00:05.083Z,1.10
2022-11-16T21:02:31.655Z,1.27
2022-11-16T21:05:00.484Z,0.90
2022-11-16T21:07:27.339Z,1.20
2022-11-16T21:10:12.205Z,1.10
2022-11-16T21:12:57.158Z,1.50
2022-11-16T21:15:23.602Z,1.20
2022-11-16T21:17:50.100Z,1.02
2022-11-16T21:20:32.256Z,1.48
2022-11-16T21:22:58.748Z,1.33
2022-11-16T21:25:25.277Z,1.65
2022-11-16T21:27:51.812Z,0.90
2022-11-16T21:30:19.880Z,1.33
2022-11-16T21:32:46.409Z,1.52
2022-11-16T21:35:13.109Z,1.42
2022-11-16T21:37:39.695Z,1.42
2022-11-16T21:40:06.668Z,1.27
2022-11-16T21:42:33.244Z,1.42
2022-11-16T21:44:59.731Z,1.48
2022-11-16T21:47:26.357Z,2.05
2022-11-16T21:50:29.669Z,1.35
2022-11-16T21:52:39.329Z,1.63
2022-11-16T21:55:06.152Z,1.05
2022-11-16T21:57:32.670Z,1.58
2022-11-16T22:00:00.987Z,1.67
2022-11-16T22:02:27.596Z,2.05
2022-11-16T22:05:12.624Z,2.43
2022-11-16T22:07:41.155Z,1.73
2022-11-16T22:10:10.152Z,1.42
2022-11-16T22:12:37.443Z,1.23
2022-11-16T22:15:05.971Z,1.05
2022-11-16T22:17:33.298Z,1.37
2022-11-16T22:19:59.773Z,1.35
2022-11-16T22:22:26.424Z,1.30
2022-11-16T22:24:53.081Z,1.50
2022-11-16T22:27:19.742Z,1.50
2022-11-16T22:29:46.270Z,1.77
2022-11-16T22:32:12.814Z,1.55
2022-11-16T22:34:39.407Z,1.48
2022-11-16T22:37:05.957Z,1.65
2022-11-16T22:39:32.556Z,1.63
2022-11-16T22:41:59.023Z,1.97
2022-11-16T22:44:25.508Z,1.77
2022-11-16T22:46:52.693Z,1.40
2022-11-16T22:49:19.655Z,1.58
2022-11-16T22:51:46.451Z,1.40
2022-11-16T22:54:13.523Z,1.70
2022-11-16T22:56:40.060Z,1.23
2022-11-16T22:59:06.827Z,1.13
2022-11-16T23:01:33.558Z,1.30
2022-11-16T23:04:00.270Z,1.33
2022-11-16T23:06:27.304Z,1.37
2022-11-16T23:08:54.119Z,1.50
2022-11-16T23:11:43.471Z,1.40
2022-11-16T23:14:31.131Z,1.48
2022-11-16T23:16:58.077Z,1.55
2022-11-16T23:19:44.274Z,1.67
2022-11-16T23:22:37.394Z,1.45
2022-11-16T23:25:24.073Z,1.02
2022-11-16T23:28:05.630Z,1.45
2022-11-16T23:30:32.827Z,1.25
2022-11-16T23:32:59.445Z,1.57
2022-11-16T23:35:25.998Z,1.83
2022-11-16T23:38:01.098Z,1.50
2022-11-16T23:40:30.503Z,1.23
2022-11-16T23:43:16.555Z,1.50
2022-11-16T23:45:43.717Z,1.20
2022-11-16T23:48:12.092Z,2.00
2022-11-16T23:50:38.731Z,1.75
2022-11-16T23:53:06.845Z,1.55
2022-11-16T23:55:34.782Z,1.30
2022-11-16T23:58:01.595Z,1.30
